Главная страница
METAR-TAF:

METAR-TAF

Аэропорты :

Мераге, Иран

широта: 37-20-55N, долгота: 046-07-35E, высота над уровнем моря: 1340 м

Текущие метеонаблюдения

Эта сводка был подготовлена 16 минут назад, в 18:00 UTC
Ветер 4 Узел от восточный
Температура 18°C
Влажность 15%
Давление 1013 hPa
Видимость 10 км и более
Нет облачности ниже 1500 м, и нет кучево-дождевой облачности

METAR: OITM 171800Z 09004KT CAVOK 18/M09 Q1013

Время: 22:46 (18:16 UTC)


TAF: отсутствует

Метеонаблюдения и прогнозы для более 4000 аэропортов (сводки METAR и TAF).

Имеющиеся станции представлены на карте желтыми и красными точками.

Чтобы увидеть название станции, наведите на нее мышь.

Затем щелкните, чтобы увидеть метеонаблюдения и метеопрогнозы.

Управление картой: чтобы увеличить масштаб, щелкните зеленые кнопки с черным крестиком; чтобы уменьшить масштаб, щелкните зеленую кнопку с тире; для просмотра соседних карт щелкайте зеленые стрелки.


METAR-TAF: